createdAt,value
2018-05-16T00:02:12.232Z,13.53
2018-05-16T00:04:38.951Z,13.67
2018-05-16T00:07:05.655Z,17.47
2018-05-16T00:09:32.352Z,12.93
2018-05-16T00:11:59.061Z,13.10
2018-05-16T00:14:25.802Z,15.73
2018-05-16T00:16:53.394Z,16.40
2018-05-16T00:19:20.111Z,13.20
2018-05-16T00:21:46.811Z,15.10
2018-05-16T00:24:13.508Z,14.40
2018-05-16T00:26:40.226Z,13.27
2018-05-16T00:29:06.942Z,12.37
2018-05-16T00:31:34.387Z,14.77
2018-05-16T00:34:01.073Z,18.83
2018-05-16T00:36:27.840Z,16.07
2018-05-16T00:38:54.539Z,19.47
2018-05-16T00:41:21.319Z,15.90
2018-05-16T00:43:48.057Z,18.43
2018-05-16T00:46:14.754Z,15.77
2018-05-16T00:48:41.440Z,18.70
2018-05-16T00:51:26.649Z,18.10
2018-05-16T00:53:54.079Z,19.97
2018-05-16T00:56:20.804Z,17.70
2018-05-16T00:58:47.485Z,21.43
2018-05-16T01:01:14.912Z,19.93
2018-05-16T01:03:41.604Z,17.70
2018-05-16T01:06:08.348Z,15.53
2018-05-16T01:08:35.020Z,15.53
2018-05-16T01:11:01.699Z,18.20
2018-05-16T01:13:29.142Z,15.57
2018-05-16T01:15:56.607Z,18.37
2018-05-16T01:18:24.817Z,18.57
2018-05-16T01:20:51.496Z,17.50
2018-05-16T01:23:18.169Z,14.30
2018-05-16T01:25:44.864Z,10.70
2018-05-16T01:28:11.549Z,10.53
2018-05-16T01:30:38.259Z,11.00
2018-05-16T01:33:05.723Z,9.93
2018-05-16T01:35:33.164Z,9.73
2018-05-16T01:37:59.851Z,8.60
2018-05-16T01:40:26.532Z,8.80
2018-05-16T01:42:53.212Z,9.63
2018-05-16T01:45:19.897Z,10.53
2018-05-16T01:47:46.611Z,10.43
2018-05-16T01:50:13.292Z,8.80
2018-05-16T01:52:39.994Z,9.47
2018-05-16T01:55:06.671Z,9.57
2018-05-16T01:57:34.139Z,10.67
2018-05-16T02:00:01.599Z,7.97
2018-05-16T02:02:29.018Z,13.67
2018-05-16T02:04:55.724Z,9.47
2018-05-16T02:07:22.397Z,11.33
2018-05-16T02:09:49.092Z,16.03
2018-05-16T02:12:15.784Z,12.60
2018-05-16T02:14:42.491Z,14.43
2018-05-16T02:17:09.209Z,15.80
2018-05-16T02:19:39.011Z,12.20
2018-05-16T02:22:05.692Z,12.97
2018-05-16T02:24:32.391Z,17.83
2018-05-16T02:26:59.059Z,12.30
2018-05-16T02:29:25.844Z,14.53
2018-05-16T02:31:53.269Z,14.47
2018-05-16T02:34:19.944Z,18.93
2018-05-16T02:36:47.378Z,13.90
2018-05-16T02:39:14.086Z,11.77
2018-05-16T02:41:40.817Z,14.27
2018-05-16T02:44:07.512Z,11.23
2018-05-16T02:46:34.937Z,11.00
2018-05-16T02:49:01.627Z,11.20
2018-05-16T02:51:28.337Z,9.37
2018-05-16T02:53:55.025Z,8.70
2018-05-16T02:56:21.707Z,9.83
2018-05-16T02:58:48.465Z,8.03
2018-05-16T03:01:16.057Z,6.23
2018-05-16T03:03:42.741Z,9.23
2018-05-16T03:06:09.417Z,8.83
2018-05-16T03:08:36.100Z,7.73
2018-05-16T03:11:02.792Z,8.20
2018-05-16T03:13:29.505Z,8.20
2018-05-16T03:15:56.944Z,9.90
2018-05-16T03:18:24.464Z,9.33
2018-05-16T03:20:51.137Z,7.30
2018-05-16T03:23:17.832Z,10.17
2018-05-16T03:25:44.536Z,9.07
2018-05-16T03:28:12.007Z,9.03
2018-05-16T03:30:39.432Z,8.80
2018-05-16T03:33:06.127Z,8.23
2018-05-16T03:35:32.837Z,8.60
2018-05-16T03:38:00.257Z,11.90
2018-05-16T03:40:26.937Z,11.07
2018-05-16T03:42:54.377Z,8.83
2018-05-16T03:45:21.824Z,9.77
2018-05-16T03:47:48.496Z,12.37
2018-05-16T03:50:15.184Z,10.13
2018-05-16T03:52:41.904Z,12.03
2018-05-16T03:55:08.576Z,10.27
2018-05-16T04:01:09.752Z,10.90
2018-05-16T04:06:44.784Z,12.63
2018-05-16T04:09:11.505Z,14.90
2018-05-16T04:11:42.031Z,13.93
2018-05-16T04:14:08.707Z,11.63
2018-05-16T04:16:36.149Z,12.27
2018-05-16T04:19:02.859Z,9.00
2018-05-16T04:21:29.629Z,11.23
2018-05-16T04:23:56.981Z,14.27
2018-05-16T04:26:23.672Z,10.47
2018-05-16T04:28:50.393Z,10.53
2018-05-16T04:31:17.087Z,13.43
2018-05-16T04:33:43.812Z,12.77
2018-05-16T04:36:10.482Z,13.47
2018-05-16T04:38:37.156Z,15.17
2018-05-16T04:41:03.853Z,15.73
2018-05-16T04:43:30.517Z,14.10
2018-05-16T04:45:57.932Z,11.60
2018-05-16T04:48:24.631Z,11.73
2018-05-16T04:50:51.304Z,11.60
2018-05-16T04:53:18.014Z,10.87
2018-05-16T04:55:45.466Z,11.07
2018-05-16T04:58:12.179Z,10.20
2018-05-16T05:00:39.606Z,10.20
2018-05-16T05:03:06.292Z,11.20
2018-05-16T05:05:33.007Z,15.63
2018-05-16T05:07:59.712Z,11.37
2018-05-16T05:10:27.179Z,10.93
2018-05-16T05:12:53.904Z,10.17
2018-05-16T05:15:20.577Z,9.67
2018-05-16T05:17:48.025Z,8.20
2018-05-16T05:20:15.477Z,8.73
2018-05-16T05:22:42.229Z,8.10
2018-05-16T05:25:09.664Z,9.47
2018-05-16T05:27:36.336Z,7.90
2018-05-16T05:30:03.116Z,12.17
2018-05-16T05:32:29.844Z,9.77
2018-05-16T05:34:56.563Z,7.63
2018-05-16T05:37:23.257Z,9.83
2018-05-16T05:39:49.953Z,7.87
2018-05-16T05:42:16.660Z,5.40
2018-05-16T05:44:44.081Z,6.33
2018-05-16T05:47:10.784Z,5.10
2018-05-16T05:49:37.484Z,5.50
2018-05-16T05:52:04.937Z,5.80
2018-05-16T05:54:32.456Z,4.33
2018-05-16T05:56:59.166Z,6.80
2018-05-16T05:59:25.836Z,3.33
2018-05-16T06:01:52.628Z,5.37
2018-05-16T06:04:19.303Z,4.40
2018-05-16T06:06:46.019Z,2.63
2018-05-16T06:09:12.716Z,5.00
2018-05-16T06:11:39.497Z,4.90
2018-05-16T06:14:06.145Z,4.90
2018-05-16T06:16:32.827Z,4.90
2018-05-16T06:18:59.511Z,3.17
2018-05-16T06:21:26.204Z,3.93
2018-05-16T06:23:53.713Z,6.77
2018-05-16T06:26:20.404Z,3.53
2018-05-16T06:28:47.085Z,3.13
2018-05-16T06:31:13.774Z,4.17
2018-05-16T06:33:40.484Z,2.77
2018-05-16T06:36:07.169Z,3.03
2018-05-16T06:38:34.603Z,2.53
2018-05-16T06:41:01.296Z,2.93
2018-05-16T06:43:27.975Z,2.87
2018-05-16T06:45:54.738Z,4.80
2018-05-16T06:48:21.391Z,1.70
2018-05-16T06:50:48.838Z,3.10
2018-05-16T06:53:16.293Z,4.63
2018-05-16T06:55:42.994Z,2.73
2018-05-16T06:58:09.671Z,2.57
2018-05-16T07:00:37.107Z,4.30
2018-05-16T07:03:03.796Z,3.80
2018-05-16T07:05:30.484Z,2.87
2018-05-16T07:07:57.196Z,4.20
2018-05-16T07:10:23.878Z,2.53
2018-05-16T07:12:51.336Z,3.20
2018-05-16T07:15:18.764Z,2.90
2018-05-16T07:17:45.524Z,3.77
2018-05-16T07:20:12.941Z,3.93
2018-05-16T07:22:39.625Z,2.87
2018-05-16T07:25:07.848Z,4.63
2018-05-16T07:27:34.523Z,4.10
2018-05-16T07:30:01.243Z,2.33
2018-05-16T07:32:28.006Z,2.27
2018-05-16T07:34:54.663Z,2.67
2018-05-16T07:37:22.572Z,3.90
2018-05-16T07:39:50.569Z,3.13
2018-05-16T07:42:17.251Z,2.93
2018-05-16T07:44:43.951Z,5.53
2018-05-16T07:47:10.701Z,2.97
2018-05-16T07:49:37.378Z,4.50
2018-05-16T07:52:04.828Z,4.37
2018-05-16T07:54:31.549Z,2.87
2018-05-16T07:56:58.996Z,2.80
2018-05-16T07:59:25.705Z,2.77
2018-05-16T08:01:52.396Z,3.43
2018-05-16T08:04:19.075Z,3.53
2018-05-16T08:06:45.771Z,2.27
2018-05-16T08:09:12.499Z,3.00
2018-05-16T08:11:39.219Z,3.47
2018-05-16T08:14:05.974Z,2.00
2018-05-16T08:16:33.419Z,4.27
2018-05-16T08:19:00.884Z,4.57
2018-05-16T08:21:28.324Z,3.30
2018-05-16T08:23:56.543Z,4.67
2018-05-16T08:26:25.546Z,6.40
2018-05-16T08:28:52.226Z,4.13
2018-05-16T08:31:18.965Z,3.83
2018-05-16T08:33:45.666Z,3.37
2018-05-16T08:36:12.351Z,2.50
2018-05-16T08:38:39.791Z,3.13
2018-05-16T08:41:06.476Z,2.83
2018-05-16T08:43:33.172Z,2.00
2018-05-16T08:45:59.891Z,4.30
2018-05-16T08:48:26.598Z,1.67
2018-05-16T08:50:53.291Z,2.97
2018-05-16T08:53:19.983Z,4.37
2018-05-16T08:55:46.692Z,3.17
2018-05-16T08:58:14.164Z,4.20
2018-05-16T09:00:40.899Z,3.30
2018-05-16T09:03:07.617Z,2.97
2018-05-16T09:05:35.072Z,2.90
2018-05-16T09:08:02.517Z,1.90
2018-05-16T09:10:29.219Z,4.60
2018-05-16T09:12:55.912Z,3.00
2018-05-16T09:15:23.358Z,2.57
2018-05-16T09:17:50.799Z,1.87
2018-05-16T09:20:17.474Z,3.87
2018-05-16T09:22:44.156Z,4.10
2018-05-16T09:25:11.661Z,2.90
2018-05-16T09:27:38.724Z,3.90
2018-05-16T09:30:05.471Z,3.53
2018-05-16T09:32:32.156Z,2.37
2018-05-16T09:34:58.844Z,4.60
2018-05-16T09:37:25.544Z,4.60
2018-05-16T09:39:52.991Z,3.10
2018-05-16T09:42:19.694Z,2.50
2018-05-16T09:44:46.384Z,2.90
2018-05-16T09:47:13.864Z,1.83
2018-05-16T09:49:40.556Z,3.77
2018-05-16T09:52:07.248Z,2.47
2018-05-16T09:54:33.936Z,4.37
2018-05-16T09:57:00.656Z,2.70
2018-05-16T09:59:27.348Z,3.93
2018-05-16T10:01:54.055Z,4.77
2018-05-16T10:04:20.759Z,3.37
2018-05-16T10:06:47.433Z,7.93
2018-05-16T10:09:14.137Z,5.27
2018-05-16T10:11:40.826Z,3.63
2018-05-16T10:14:08.321Z,3.93
2018-05-16T10:16:35.033Z,4.80
2018-05-16T10:19:02.445Z,3.23
2018-05-16T10:21:29.152Z,3.07
2018-05-16T10:23:55.834Z,3.93
2018-05-16T10:26:23.292Z,2.40
2018-05-16T10:28:50.765Z,4.30
2018-05-16T10:31:18.215Z,6.37
2018-05-16T10:33:45.680Z,4.27
2018-05-16T10:36:13.129Z,2.77
2018-05-16T10:38:40.575Z,4.40
2018-05-16T10:41:07.280Z,2.53
2018-05-16T10:43:34.002Z,2.23
2018-05-16T10:46:00.720Z,3.07
2018-05-16T10:48:27.420Z,4.50
2018-05-16T10:50:54.144Z,5.23
2018-05-16T10:53:20.860Z,2.27
2018-05-16T10:55:47.579Z,2.93
2018-05-16T10:58:14.548Z,2.33
2018-05-16T11:00:42.037Z,5.93
2018-05-16T11:03:08.767Z,4.10
2018-05-16T11:05:35.485Z,2.17
2018-05-16T11:08:02.220Z,3.07
2018-05-16T11:10:28.959Z,3.07
2018-05-16T11:12:55.700Z,3.67
2018-05-16T11:15:22.448Z,3.27
2018-05-16T11:17:49.180Z,3.60
2018-05-16T11:20:15.926Z,3.23
2018-05-16T11:22:42.636Z,6.13
2018-05-16T11:25:09.388Z,5.30
2018-05-16T11:27:36.887Z,3.40
2018-05-16T11:30:04.612Z,3.53
2018-05-16T11:32:31.317Z,6.10
2018-05-16T11:34:58.807Z,3.67
2018-05-16T11:37:25.555Z,4.47
2018-05-16T11:39:52.280Z,5.10
2018-05-16T11:42:19.021Z,4.27
2018-05-16T11:44:45.779Z,2.53
2018-05-16T11:47:12.508Z,4.73
2018-05-16T11:49:39.254Z,3.77
2018-05-16T11:52:05.975Z,2.40
2018-05-16T11:54:32.684Z,4.20
2018-05-16T11:57:00.124Z,2.97
2018-05-16T11:59:26.824Z,4.60
2018-05-16T12:01:53.582Z,2.63
2018-05-16T12:04:20.312Z,4.50
2018-05-16T12:06:47.062Z,2.37
2018-05-16T12:09:13.815Z,5.27
2018-05-16T12:11:40.532Z,2.50
2018-05-16T12:14:07.324Z,6.50
2018-05-16T12:16:34.784Z,4.23
2018-05-16T12:19:01.494Z,3.93
2018-05-16T12:21:28.177Z,2.03
2018-05-16T12:23:54.887Z,2.83
2018-05-16T12:26:21.577Z,1.87
2018-05-16T12:28:48.286Z,3.87
2018-05-16T12:31:15.021Z,3.83
2018-05-16T12:33:41.711Z,2.20
2018-05-16T12:36:08.458Z,1.60
2018-05-16T12:38:35.176Z,1.97
2018-05-16T12:41:01.882Z,3.47
2018-05-16T12:43:30.547Z,2.40
2018-05-16T12:45:57.992Z,3.83
2018-05-16T12:48:24.719Z,1.60
2018-05-16T12:50:51.407Z,2.27
2018-05-16T12:53:18.137Z,3.67
2018-05-16T12:55:45.204Z,3.80
2018-05-16T12:58:11.907Z,2.30
2018-05-16T13:00:39.341Z,1.87
2018-05-16T13:03:06.055Z,2.93
2018-05-16T13:05:32.792Z,5.10
2018-05-16T13:07:59.492Z,2.37
2018-05-16T13:10:26.209Z,3.07
2018-05-16T13:12:53.767Z,2.57
2018-05-16T13:15:20.437Z,2.37
2018-05-16T13:17:47.238Z,2.40
2018-05-16T13:20:13.940Z,1.53
2018-05-16T13:22:40.680Z,17.57
2018-05-16T13:25:07.475Z,99.90
2018-05-16T13:27:34.959Z,143.07
2018-05-16T13:30:01.652Z,64.90
2018-05-16T13:32:28.370Z,277.97
2018-05-16T13:34:55.073Z,60.70
2018-05-16T13:37:21.782Z,62.97
2018-05-16T13:39:49.284Z,25.70
2018-05-16T13:42:16.032Z,9.70
2018-05-16T13:44:42.741Z,4.07
2018-05-16T13:47:09.484Z,2.83
2018-05-16T13:49:36.264Z,2.90
2018-05-16T13:52:27.062Z,9.30
2018-05-16T13:54:54.750Z,11.70
2018-05-16T13:57:22.224Z,16.57
2018-05-16T13:59:49.697Z,19.93
2018-05-16T14:02:16.449Z,31.00
2018-05-16T14:04:43.252Z,26.47
2018-05-16T14:07:10.713Z,28.30
2018-05-16T14:09:38.193Z,35.17
2018-05-16T14:12:05.049Z,23.63
2018-05-16T14:14:32.478Z,8.43
2018-05-16T14:16:59.224Z,14.50
2018-05-16T14:19:25.914Z,11.57
2018-05-16T14:21:52.621Z,9.70
2018-05-16T14:24:19.312Z,4.70
2018-05-16T14:26:45.996Z,11.70
2018-05-16T14:29:12.704Z,8.77
2018-05-16T14:31:40.169Z,12.87
2018-05-16T14:34:06.852Z,11.63
2018-05-16T14:36:33.571Z,9.43
2018-05-16T14:39:00.324Z,5.53
2018-05-16T14:41:27.041Z,8.33
2018-05-16T14:43:53.846Z,7.27
2018-05-16T14:46:21.337Z,4.20
2018-05-16T14:48:48.067Z,3.97
2018-05-16T14:51:16.432Z,5.47
2018-05-16T14:53:43.904Z,4.83
2018-05-16T14:56:10.651Z,3.90
2018-05-16T14:58:37.418Z,4.60
2018-05-16T15:01:04.192Z,3.57
2018-05-16T15:03:30.999Z,4.27
2018-05-16T15:05:57.686Z,6.37
2018-05-16T15:08:25.154Z,3.93
2018-05-16T15:10:51.972Z,4.83
2018-05-16T15:13:19.467Z,3.80
2018-05-16T15:15:46.204Z,5.00
2018-05-16T15:18:12.953Z,4.63
2018-05-16T15:20:39.797Z,3.10
2018-05-16T15:23:06.577Z,5.60
2018-05-16T15:25:33.392Z,3.57
2018-05-16T15:28:00.159Z,3.27
2018-05-16T15:30:26.877Z,3.53
2018-05-16T15:32:53.747Z,4.60
2018-05-16T15:35:20.497Z,3.73
2018-05-16T15:37:47.982Z,2.93
2018-05-16T15:40:14.728Z,5.20
2018-05-16T15:42:41.451Z,4.47
2018-05-16T15:45:08.223Z,3.33
2018-05-16T15:47:34.960Z,3.10
2018-05-16T15:50:01.740Z,3.80
2018-05-16T15:52:28.479Z,9.40
2018-05-16T15:54:55.202Z,15.97
2018-05-16T15:57:21.939Z,26.50
2018-05-16T15:59:48.710Z,14.70
2018-05-16T16:02:15.431Z,17.77
2018-05-16T16:04:42.173Z,41.87
2018-05-16T16:07:09.577Z,19.67
2018-05-16T16:09:36.316Z,6.70
2018-05-16T16:12:03.084Z,4.13
2018-05-16T16:14:29.807Z,7.73
2018-05-16T16:16:56.577Z,8.90
2018-05-16T16:19:23.333Z,3.80
2018-05-16T16:21:50.112Z,2.27
2018-05-16T16:24:16.884Z,1.67
2018-05-16T16:26:43.624Z,2.67
2018-05-16T16:29:10.366Z,2.73
2018-05-16T16:31:37.269Z,4.47
2018-05-16T16:34:04.042Z,4.40
2018-05-16T16:36:30.764Z,8.90
2018-05-16T16:38:57.595Z,7.97
2018-05-16T16:41:24.267Z,2.47
2018-05-16T16:43:51.526Z,2.13
2018-05-16T16:46:18.694Z,3.97
2018-05-16T16:48:45.741Z,6.90
2018-05-16T16:51:12.470Z,13.53
2018-05-16T16:53:39.244Z,5.53
2018-05-16T16:56:06.751Z,4.70
2018-05-16T16:58:34.004Z,4.10
2018-05-16T17:01:00.745Z,5.07
2018-05-16T17:03:27.479Z,7.17
2018-05-16T17:05:54.204Z,6.80
2018-05-16T17:08:21.012Z,7.00
2018-05-16T17:10:47.740Z,4.03
2018-05-16T17:13:14.510Z,5.70
2018-05-16T17:15:41.232Z,4.23
2018-05-16T17:18:08.820Z,2.23
2018-05-16T17:20:36.545Z,1.87
2018-05-16T17:23:04.057Z,3.37
2018-05-16T17:25:31.784Z,2.60
2018-05-16T17:27:59.425Z,4.63
2018-05-16T17:30:26.959Z,4.70
2018-05-16T17:32:53.673Z,15.17
2018-05-16T17:35:20.395Z,9.47
2018-05-16T17:37:47.107Z,5.37
2018-05-16T17:40:14.584Z,3.30
2018-05-16T17:42:41.324Z,2.83
2018-05-16T17:45:08.070Z,3.93
2018-05-16T17:47:35.855Z,15.53
2018-05-16T17:50:02.659Z,21.13
2018-05-16T17:52:29.379Z,8.93
2018-05-16T17:54:56.840Z,6.27
2018-05-16T17:57:24.368Z,3.13
2018-05-16T17:59:51.092Z,3.50
2018-05-16T18:02:17.853Z,3.90
2018-05-16T18:04:44.592Z,6.23
2018-05-16T18:07:11.297Z,3.97
2018-05-16T18:09:38.019Z,4.30
2018-05-16T18:12:05.494Z,24.23
2018-05-16T18:18:10.655Z,52.83
2018-05-16T18:20:37.721Z,13.57
2018-05-16T18:23:05.702Z,3.23
2018-05-16T18:25:32.831Z,7.03
2018-05-16T18:27:59.939Z,6.13
2018-05-16T18:30:26.994Z,4.80
2018-05-16T18:32:54.044Z,7.80
2018-05-16T18:35:21.113Z,11.07
2018-05-16T18:37:48.174Z,10.70
2018-05-16T18:40:15.931Z,7.80
2018-05-16T18:42:43.083Z,5.57
2018-05-16T18:45:10.202Z,3.53
2018-05-16T18:47:37.359Z,3.93
2018-05-16T18:50:04.450Z,8.13
2018-05-16T18:52:31.575Z,4.17
2018-05-16T18:54:58.651Z,2.43
2018-05-16T18:57:25.755Z,3.17
2018-05-16T18:59:52.910Z,4.93
2018-05-16T19:02:20.061Z,15.80
2018-05-16T19:04:47.129Z,15.77
2018-05-16T19:07:14.925Z,13.07
2018-05-16T19:09:47.851Z,5.50
2018-05-16T19:12:14.903Z,17.40
2018-05-16T19:14:42.011Z,7.63
2018-05-16T19:17:10.126Z,5.47
2018-05-16T19:19:37.258Z,2.00
2018-05-16T19:22:05.127Z,3.10
2018-05-16T19:24:32.222Z,2.00
2018-05-16T19:26:59.520Z,1.83
2018-05-16T19:29:26.647Z,3.73
2018-05-16T19:31:54.583Z,12.30
2018-05-16T19:34:23.577Z,25.83
2018-05-16T19:36:50.678Z,10.00
2018-05-16T19:39:17.737Z,16.37
2018-05-16T19:41:44.794Z,8.03
2018-05-16T19:44:12.584Z,2.67
2018-05-16T19:46:39.721Z,2.57
2018-05-16T19:49:07.154Z,2.50
2018-05-16T19:51:34.219Z,2.00
2018-05-16T19:54:01.273Z,4.53
2018-05-16T19:56:28.331Z,4.37
2018-05-16T19:58:56.290Z,4.97
2018-05-16T20:01:23.345Z,5.00
2018-05-16T20:03:50.473Z,10.27
2018-05-16T20:06:17.644Z,20.60
2018-05-16T20:08:44.687Z,10.60
2018-05-16T20:11:11.752Z,5.63
2018-05-16T20:13:39.575Z,7.50
2018-05-16T20:16:07.479Z,3.97
2018-05-16T20:18:34.560Z,6.40
2018-05-16T20:21:01.575Z,3.10
2018-05-16T20:23:29.393Z,3.47
2018-05-16T20:25:56.414Z,3.70
2018-05-16T20:28:23.459Z,4.43
2018-05-16T20:30:50.477Z,3.87
2018-05-16T20:33:17.552Z,4.00
2018-05-16T20:35:45.349Z,3.33
2018-05-16T20:38:13.162Z,4.93
2018-05-16T20:40:40.932Z,5.67
2018-05-16T20:43:08.732Z,4.73
2018-05-16T20:45:35.802Z,4.23
2018-05-16T20:48:02.852Z,5.63
2018-05-16T20:50:29.893Z,7.33
2018-05-16T20:52:56.933Z,4.70
2018-05-16T20:55:23.996Z,6.90
2018-05-16T20:57:51.036Z,6.77
2018-05-16T21:00:18.071Z,7.67
2018-05-16T21:02:45.096Z,7.07
2018-05-16T21:05:12.991Z,7.53
2018-05-16T21:07:40.919Z,7.20
2018-05-16T21:10:08.686Z,5.90
2018-05-16T21:12:35.686Z,7.07
2018-05-16T21:15:03.176Z,7.57
2018-05-16T21:17:30.218Z,7.73
2018-05-16T21:19:58.156Z,10.43
2018-05-16T21:22:25.249Z,5.80
2018-05-16T21:24:52.996Z,8.90
2018-05-16T21:27:21.847Z,10.90
2018-05-16T21:29:48.921Z,9.03
2018-05-16T21:32:15.993Z,7.40
2018-05-16T21:34:43.779Z,8.07
2018-05-16T21:37:10.892Z,8.27
2018-05-16T21:39:37.899Z,6.70
2018-05-16T21:42:04.966Z,11.33
2018-05-16T21:44:32.555Z,16.00
2018-05-16T21:46:59.580Z,20.50
2018-05-16T21:49:27.034Z,17.70
2018-05-16T21:51:54.104Z,15.27
2018-05-16T21:54:21.154Z,17.23
2018-05-16T21:56:49.032Z,15.27
2018-05-16T21:59:15.984Z,15.57
2018-05-16T22:01:43.017Z,17.17
2018-05-16T22:04:10.798Z,11.23
2018-05-16T22:06:37.847Z,11.43
2018-05-16T22:09:05.691Z,8.50
2018-05-16T22:11:33.412Z,9.70
2018-05-16T22:14:00.422Z,12.50
2018-05-16T22:16:27.452Z,11.07
2018-05-16T22:18:55.241Z,15.07
2018-05-16T22:21:22.284Z,16.27
2018-05-16T22:23:49.327Z,20.47
2018-05-16T22:26:17.116Z,20.57
2018-05-16T22:28:44.145Z,19.20
2018-05-16T22:31:17.279Z,23.77
2018-05-16T22:33:50.500Z,35.47
2018-05-16T22:36:23.595Z,28.03
2018-05-16T22:38:57.415Z,25.50
2018-05-16T22:41:31.300Z,19.57
2018-05-16T22:44:01.642Z,18.00
2018-05-16T22:46:29.427Z,18.83
2018-05-16T22:48:56.455Z,17.53
2018-05-16T22:51:24.508Z,21.13
2018-05-16T22:53:51.527Z,21.00
2018-05-16T22:56:18.535Z,35.37
2018-05-16T22:58:45.641Z,24.67
2018-05-16T23:01:12.995Z,31.77
2018-05-16T23:03:40.001Z,36.97
2018-05-16T23:06:07.142Z,36.90
2018-05-16T23:08:34.151Z,37.20
2018-05-16T23:11:01.172Z,31.17
2018-05-16T23:13:28.215Z,47.10
2018-05-16T23:15:55.279Z,113.97
2018-05-16T23:18:23.031Z,211.03
2018-05-16T23:20:50.033Z,123.37
2018-05-16T23:23:17.027Z,51.80
2018-05-16T23:25:44.027Z,526.57
2018-05-16T23:28:11.172Z,50.07
2018-05-16T23:30:38.224Z,190.50
2018-05-16T23:33:05.236Z,159.33
2018-05-16T23:35:33.219Z,560.63
2018-05-16T23:38:00.959Z,595.03
2018-05-16T23:40:28.249Z,452.07
2018-05-16T23:42:55.259Z,428.70
2018-05-16T23:45:22.459Z,369.40
2018-05-16T23:47:50.492Z,140.23
2018-05-16T23:50:17.691Z,281.10
2018-05-16T23:52:44.664Z,323.60
2018-05-16T23:55:11.679Z,164.77
2018-05-16T23:57:39.521Z,169.07
